createdAt,value
2023-05-06T00:00:31.763Z,101530.56
2023-05-06T00:03:34.721Z,101537.19
2023-05-06T00:06:37.277Z,101529.66
2023-05-06T00:09:39.413Z,101540.47
2023-05-06T00:12:41.518Z,101524.78
2023-05-06T00:15:43.620Z,101534.00
2023-05-06T00:18:45.728Z,101535.03
2023-05-06T00:21:48.017Z,101533.78
2023-05-06T00:24:50.524Z,101537.03
2023-05-06T00:27:53.661Z,101536.56
2023-05-06T00:30:55.794Z,101534.41
2023-05-06T00:33:57.917Z,101530.00
2023-05-06T00:37:00.128Z,101524.28
2023-05-06T00:40:03.642Z,101523.06
2023-05-06T00:43:06.431Z,101537.66
2023-05-06T00:46:11.986Z,101531.50
2023-05-06T00:49:14.869Z,101536.06
2023-05-06T00:52:18.793Z,101535.03
2023-05-06T00:55:22.233Z,101534.59
2023-05-06T00:58:24.373Z,101535.53
2023-05-06T01:01:27.894Z,101522.72
2023-05-06T01:04:31.251Z,101525.78
2023-05-06T01:07:58.174Z,101529.91
2023-05-06T01:11:28.137Z,101528.97
2023-05-06T01:14:56.375Z,101540.69
2023-05-06T01:18:01.118Z,101541.97
2023-05-06T01:21:05.576Z,101539.84
2023-05-06T01:24:07.774Z,101534.28
2023-05-06T01:27:11.825Z,101535.50
2023-05-06T01:30:16.247Z,101548.41
2023-05-06T01:33:39.953Z,101544.84
2023-05-06T01:37:11.039Z,101543.72
2023-05-06T01:40:15.526Z,101533.03
2023-05-06T01:43:19.814Z,101541.94
2023-05-06T01:46:22.791Z,101537.34
2023-05-06T01:49:27.838Z,101538.81
2023-05-06T01:52:29.912Z,101542.56
2023-05-06T01:55:32.458Z,101551.41
2023-05-06T01:58:34.967Z,101559.53
2023-05-06T02:01:37.121Z,101550.34
2023-05-06T02:04:39.903Z,101561.69
2023-05-06T02:07:43.371Z,101576.47
2023-05-06T02:10:47.417Z,101566.41
2023-05-06T02:13:49.858Z,101566.28
2023-05-06T02:16:55.614Z,101563.41
2023-05-06T02:19:58.936Z,101562.94
2023-05-06T02:23:01.094Z,101552.63
2023-05-06T02:26:05.689Z,101561.75
2023-05-06T02:29:08.477Z,101563.00
2023-05-06T02:32:10.602Z,101567.69
2023-05-06T02:35:12.872Z,101569.75
2023-05-06T02:38:14.932Z,101571.44
2023-05-06T02:41:17.055Z,101570.22
2023-05-06T02:44:20.403Z,101569.75
2023-05-06T02:47:22.540Z,101575.69
2023-05-06T02:50:24.661Z,101571.66
2023-05-06T02:53:26.729Z,101581.69
2023-05-06T02:56:28.783Z,101584.38
2023-05-06T02:59:31.228Z,101578.00
2023-05-06T03:02:34.708Z,101587.53
2023-05-06T03:05:36.839Z,101578.53
2023-05-06T03:08:39.055Z,101593.13
2023-05-06T03:11:42.688Z,101589.56
2023-05-06T03:14:45.027Z,101586.00
2023-05-06T03:17:48.040Z,101595.50
2023-05-06T03:20:51.357Z,101593.13
2023-05-06T03:23:54.865Z,101596.69
2023-05-06T03:27:02.546Z,101599.88
2023-05-06T03:30:05.827Z,101598.56
2023-05-06T03:33:08.935Z,101606.53
2023-05-06T03:36:13.433Z,101601.47
2023-05-06T03:39:17.791Z,101605.50
2023-05-06T03:42:20.848Z,101608.56
2023-05-06T03:45:25.711Z,101618.38
2023-05-06T03:48:29.239Z,101620.13
2023-05-06T03:51:33.176Z,101614.63
2023-05-06T03:54:36.957Z,101626.59
2023-05-06T03:57:40.568Z,101628.38
2023-05-06T04:00:46.868Z,101624.22
2023-05-06T04:03:49.138Z,101640.28
2023-05-06T04:06:51.268Z,101639.78
2023-05-06T04:09:53.592Z,101631.91
2023-05-06T04:12:56.303Z,101638.19
2023-05-06T04:16:11.605Z,101639.88
2023-05-06T04:19:18.011Z,101638.06
2023-05-06T04:22:21.496Z,101644.16
2023-05-06T04:25:24.606Z,101658.03
2023-05-06T04:28:35.216Z,101656.72
2023-05-06T04:31:38.772Z,101653.31
2023-05-06T04:34:48.522Z,101662.44
2023-05-06T04:37:51.787Z,101659.72
2023-05-06T04:40:59.812Z,101666.00
2023-05-06T04:44:08.257Z,101659.22
2023-05-06T04:47:21.601Z,101658.59
2023-05-06T04:50:26.516Z,101667.22
2023-05-06T04:53:29.349Z,101663.81
2023-05-06T04:56:38.653Z,101672.59
2023-05-06T04:59:43.523Z,101672.28
2023-05-06T05:02:45.975Z,101670.22
2023-05-06T05:05:53.174Z,101680.06
2023-05-06T05:09:03.616Z,101670.56
2023-05-06T05:12:07.437Z,101670.66
2023-05-06T05:15:22.471Z,101671.75
2023-05-06T05:18:26.423Z,101670.75
2023-05-06T05:21:33.056Z,101676.25
2023-05-06T05:24:39.035Z,101677.13
2023-05-06T05:27:42.364Z,101671.03
2023-05-06T05:30:46.097Z,101676.25
2023-05-06T05:33:48.394Z,101678.50
2023-05-06T05:36:54.204Z,101666.66
2023-05-06T05:39:56.838Z,101679.78
2023-05-06T05:42:59.277Z,101669.03
2023-05-06T05:46:12.201Z,101663.41
2023-05-06T05:49:18.004Z,101672.75
2023-05-06T05:52:20.925Z,101662.59
2023-05-06T05:55:25.054Z,101666.91
2023-05-06T05:58:27.993Z,101679.88
2023-05-06T06:01:33.078Z,101668.13
2023-05-06T06:04:36.394Z,101678.75
2023-05-06T06:07:40.329Z,101689.16
2023-05-06T06:10:42.658Z,101686.34
2023-05-06T06:13:50.250Z,101675.09
2023-05-06T06:16:52.642Z,101664.38
2023-05-06T06:19:57.342Z,101681.50
2023-05-06T06:23:01.815Z,101683.41
2023-05-06T06:26:04.847Z,101685.88
2023-05-06T06:29:08.830Z,101675.72
2023-05-06T06:32:10.987Z,101681.16
2023-05-06T06:35:13.159Z,101681.66
2023-05-06T06:38:15.699Z,101687.09
2023-05-06T06:41:18.173Z,101685.03
2023-05-06T06:44:20.306Z,101685.03
2023-05-06T06:47:22.471Z,101681.66
2023-05-06T06:50:24.620Z,101680.91
2023-05-06T06:53:26.783Z,101685.19
2023-05-06T06:56:28.918Z,101681.94
2023-05-06T06:59:31.297Z,101683.44
2023-05-06T07:02:33.390Z,101679.31
2023-05-06T07:05:35.604Z,101681.16
2023-05-06T07:08:37.507Z,101680.78
2023-05-06T07:11:39.743Z,101684.81
2023-05-06T07:14:41.831Z,101687.09
2023-05-06T07:17:45.017Z,101682.13
2023-05-06T07:20:47.206Z,101680.41
2023-05-06T07:23:49.735Z,101676.84
2023-05-06T07:26:51.785Z,101686.16
2023-05-06T07:29:55.295Z,101679.47
2023-05-06T07:33:07.315Z,101680.72
2023-05-06T07:36:09.418Z,101683.59
2023-05-06T07:39:12.634Z,101691.22
2023-05-06T07:42:14.844Z,101682.94
2023-05-06T07:45:23.513Z,101690.03
2023-05-06T07:48:25.703Z,101690.47
2023-05-06T07:51:28.391Z,101694.84
2023-05-06T07:54:31.879Z,101688.09
2023-05-06T07:57:34.148Z,101692.66
2023-05-06T08:00:42.263Z,101682.81
2023-05-06T08:03:45.652Z,101682.31
2023-05-06T08:06:47.888Z,101675.06
2023-05-06T08:09:49.967Z,101685.56
2023-05-06T08:12:52.183Z,101682.00
2023-05-06T08:15:54.639Z,101689.41
2023-05-06T08:18:56.727Z,101685.00
2023-05-06T08:21:58.794Z,101684.25
2023-05-06T08:25:01.610Z,101680.59
2023-05-06T08:28:12.034Z,101677.50
2023-05-06T08:31:14.067Z,101672.94
2023-05-06T08:34:18.592Z,101688.84
2023-05-06T08:37:20.755Z,101689.69
2023-05-06T08:41:18.019Z,101675.97
2023-05-06T08:44:25.985Z,101684.50
2023-05-06T08:47:28.751Z,101698.13
2023-05-06T08:50:30.972Z,101700.25
2023-05-06T08:53:38.598Z,101678.28
2023-05-06T08:56:45.695Z,101689.63
2023-05-06T08:59:48.025Z,101683.75
2023-05-06T09:02:53.277Z,101680.00
2023-05-06T09:05:57.588Z,101681.44
2023-05-06T09:09:01.129Z,101670.31
2023-05-06T09:12:03.519Z,101664.84
2023-05-06T09:15:06.303Z,101673.66
2023-05-06T09:18:08.745Z,101677.00
2023-05-06T09:21:11.111Z,101675.56
2023-05-06T09:24:21.917Z,101668.03
2023-05-06T09:27:31.357Z,101656.66
2023-05-06T09:30:42.308Z,101667.38
2023-05-06T09:33:47.491Z,101661.50
2023-05-06T09:36:54.875Z,101659.88
2023-05-06T09:40:01.316Z,101662.47
2023-05-06T09:43:16.948Z,101662.47
2023-05-06T09:46:25.023Z,101672.75
2023-05-06T09:49:27.799Z,101667.13
2023-05-06T09:52:31.728Z,101670.03
2023-05-06T09:55:35.897Z,101657.22
2023-05-06T09:58:42.090Z,101661.75
2023-05-06T10:01:45.390Z,101661.28
2023-05-06T10:04:50.761Z,101658.94
2023-05-06T10:07:55.191Z,101658.50
2023-05-06T10:11:01.123Z,101667.53
2023-05-06T10:14:04.847Z,101658.06
2023-05-06T10:17:10.006Z,101646.06
2023-05-06T10:20:16.980Z,101649.19
2023-05-06T10:23:49.248Z,101645.03
2023-05-06T10:26:59.835Z,101641.47
2023-05-06T10:30:04.136Z,101637.28
2023-05-06T10:33:09.411Z,101630.59
2023-05-06T10:36:28.373Z,101627.03
2023-05-06T10:39:31.911Z,101628.88
2023-05-06T10:42:35.456Z,101633.00
2023-05-06T10:46:01.883Z,101632.44
2023-05-06T10:49:06.915Z,101641.72
2023-05-06T10:52:18.435Z,101619.88
2023-05-06T10:55:27.479Z,101627.03
2023-05-06T10:58:36.782Z,101628.69
2023-05-06T11:01:41.018Z,101619.59
2023-05-06T11:04:49.797Z,101606.94
2023-05-06T11:07:53.555Z,101620.28
2023-05-06T11:10:55.843Z,101624.53
2023-05-06T11:14:14.845Z,101615.56
2023-05-06T11:17:32.685Z,101618.75
2023-05-06T11:20:34.811Z,101617.34
2023-05-06T11:24:08.391Z,101607.72
2023-05-06T11:27:12.612Z,101600.41
2023-05-06T11:30:15.368Z,101607.66
2023-05-06T11:33:22.013Z,101594.44
2023-05-06T11:36:24.624Z,101595.94
2023-05-06T11:39:30.957Z,101584.38
2023-05-06T11:42:34.237Z,101590.13
2023-05-06T11:45:50.902Z,101592.56
2023-05-06T11:48:52.955Z,101595.69
2023-05-06T11:51:57.359Z,101592.38
2023-05-06T11:54:59.459Z,101585.25
2023-05-06T11:58:03.518Z,101580.75
2023-05-06T12:01:12.265Z,101590.94
2023-05-06T12:04:14.769Z,101574.03
2023-05-06T12:07:17.873Z,101583.34
2023-05-06T12:10:21.702Z,101572.69
2023-05-06T12:13:23.927Z,101589.03
2023-05-06T12:16:28.845Z,101582.38
2023-05-06T12:19:31.344Z,101578.84
2023-05-06T12:22:34.252Z,101578.28
2023-05-06T12:25:42.913Z,101575.97
2023-05-06T12:28:46.589Z,101578.16
2023-05-06T12:31:49.373Z,101584.28
2023-05-06T12:34:54.417Z,101575.03
2023-05-06T12:37:57.479Z,101582.19
2023-05-06T12:40:59.516Z,101571.03
2023-05-06T12:44:02.054Z,101570.38
2023-05-06T12:47:10.323Z,101572.94
2023-05-06T12:50:12.906Z,101564.09
2023-05-06T12:53:31.477Z,101580.06
2023-05-06T12:56:33.693Z,101567.88
2023-05-06T12:59:36.684Z,101562.59
2023-05-06T13:02:38.800Z,101555.22
2023-05-06T13:05:41.910Z,101561.72
2023-05-06T13:08:44.150Z,101557.94
2023-05-06T13:11:46.301Z,101560.69
2023-05-06T13:14:50.683Z,101559.41
2023-05-06T13:17:53.047Z,101556.91
2023-05-06T13:20:59.238Z,101550.56
2023-05-06T13:24:02.360Z,101551.66
2023-05-06T13:27:07.141Z,101554.00
2023-05-06T13:30:09.697Z,101547.91
2023-05-06T13:33:12.375Z,101557.19
2023-05-06T13:36:15.530Z,101562.22
2023-05-06T13:39:17.522Z,101553.16
2023-05-06T13:42:19.704Z,101556.72
2023-05-06T13:45:21.802Z,101551.72
2023-05-06T13:48:24.838Z,101539.72
2023-05-06T13:51:30.064Z,101543.91
2023-05-06T13:54:32.250Z,101548.97
2023-05-06T13:57:36.999Z,101542.53
2023-05-06T14:00:39.427Z,101528.41
2023-05-06T14:03:41.359Z,101537.53
2023-05-06T14:06:43.483Z,101543.28
2023-05-06T14:09:45.837Z,101539.50
2023-05-06T14:12:48.340Z,101537.38
2023-05-06T14:15:50.620Z,101531.38
2023-05-06T14:18:55.949Z,101524.97
2023-05-06T14:21:59.775Z,101528.44
2023-05-06T14:25:01.862Z,101521.22
2023-05-06T14:28:05.200Z,101529.28
2023-05-06T14:31:07.201Z,101524.81
2023-05-06T14:34:09.533Z,101521.13
2023-05-06T14:37:11.585Z,101528.09
2023-05-06T14:40:15.139Z,101530.75
2023-05-06T14:43:20.194Z,101528.38
2023-05-06T14:46:22.388Z,101523.97
2023-05-06T14:49:24.590Z,101524.81
2023-05-06T14:52:28.074Z,101511.72
2023-05-06T14:55:30.008Z,101524.19
2023-05-06T14:58:36.421Z,101516.63
2023-05-06T15:01:40.609Z,101516.91
2023-05-06T15:04:51.844Z,101512.34
2023-05-06T15:07:54.527Z,101520.66
2023-05-06T15:10:56.985Z,101509.97
2023-05-06T15:13:59.383Z,101509.41
2023-05-06T15:17:01.585Z,101511.94
2023-05-06T15:20:07.110Z,101508.25
2023-05-06T15:23:09.228Z,101503.22
2023-05-06T15:26:11.296Z,101512.53
2023-05-06T15:29:13.373Z,101503.13
2023-05-06T15:32:17.822Z,101497.56
2023-05-06T15:35:19.878Z,101509.09
2023-05-06T15:38:23.126Z,101509.16
2023-05-06T15:41:36.306Z,101505.41
2023-05-06T15:44:44.384Z,101512.72
2023-05-06T15:47:50.933Z,101506.19
2023-05-06T15:50:53.860Z,101507.19
2023-05-06T15:53:59.079Z,101502.38
2023-05-06T15:57:09.735Z,101501.03
2023-05-06T16:00:13.028Z,101497.25
2023-05-06T16:03:18.583Z,101498.13
2023-05-06T16:06:21.812Z,101504.09
2023-05-06T16:09:24.793Z,101499.06
2023-05-06T16:12:26.949Z,101493.38
2023-05-06T16:15:29.554Z,101506.25
2023-05-06T16:18:32.337Z,101501.00
2023-05-06T16:21:34.747Z,101498.00
2023-05-06T16:24:37.018Z,101503.72
2023-05-06T16:27:42.896Z,101494.69
2023-05-06T16:34:06.399Z,101508.81
2023-05-06T16:37:09.375Z,101501.91
2023-05-06T16:40:19.105Z,101510.72
2023-05-06T16:43:22.184Z,101498.75
2023-05-06T16:46:24.989Z,101500.22
2023-05-06T16:49:28.172Z,101499.16
2023-05-06T16:52:32.760Z,101482.34
2023-05-06T16:55:36.848Z,101500.88
2023-05-06T16:58:39.688Z,101510.69
2023-05-06T17:01:41.711Z,101514.91
2023-05-06T17:04:44.520Z,101510.88
2023-05-06T17:07:50.311Z,101524.34
2023-05-06T17:10:53.054Z,101517.38
2023-05-06T17:13:57.004Z,101535.44
2023-05-06T17:17:05.630Z,101528.28
2023-05-06T17:20:10.622Z,101527.06
2023-05-06T17:23:15.124Z,101533.75
2023-05-06T17:26:18.597Z,101542.16
2023-05-06T17:29:22.316Z,101529.75
2023-05-06T17:32:27.272Z,101537.50
2023-05-06T17:35:29.685Z,101545.91
2023-05-06T17:38:35.191Z,101552.84
2023-05-06T17:41:39.281Z,101543.97
2023-05-06T17:44:42.896Z,101552.28
2023-05-06T17:47:45.528Z,101565.47
2023-05-06T17:50:49.841Z,101558.31
2023-05-06T17:53:52.267Z,101561.84
2023-05-06T17:56:55.464Z,101573.13
2023-05-06T17:59:58.257Z,101577.06
2023-05-06T18:03:00.895Z,101577.41
2023-05-06T18:06:05.990Z,101577.34
2023-05-06T18:09:10.522Z,101583.19
2023-05-06T18:12:13.762Z,101581.72
2023-05-06T18:15:17.867Z,101582.53
2023-05-06T18:18:23.837Z,101586.41
2023-05-06T18:21:29.719Z,101593.53
2023-05-06T18:24:32.412Z,101593.66
2023-05-06T18:27:36.512Z,101590.69
2023-05-06T18:30:38.801Z,101591.94
2023-05-06T18:33:40.888Z,101598.19
2023-05-06T18:36:43.123Z,101596.22
2023-05-06T18:39:45.733Z,101594.47
2023-05-06T18:42:48.509Z,101592.78
2023-05-06T18:45:52.597Z,101598.34
2023-05-06T18:48:56.101Z,101601.09
2023-05-06T18:51:59.909Z,101597.19
2023-05-06T18:55:04.989Z,101598.88
2023-05-06T18:58:07.222Z,101603.03
2023-05-06T19:01:10.804Z,101607.34
2023-05-06T19:04:13.195Z,101591.53
2023-05-06T19:07:16.402Z,101599.31
2023-05-06T19:10:18.931Z,101599.69
2023-05-06T19:13:23.339Z,101595.19
2023-05-06T19:16:25.637Z,101592.09
2023-05-06T19:19:31.981Z,101590.41
2023-05-06T19:22:36.711Z,101590.00
2023-05-06T19:25:40.659Z,101593.31
2023-05-06T19:28:42.715Z,101591.91
2023-05-06T19:31:44.744Z,101596.63
2023-05-06T19:34:46.892Z,101598.69
2023-05-06T19:38:09.566Z,101588.25
2023-05-06T19:41:11.844Z,101588.25
2023-05-06T19:44:17.389Z,101584.03
2023-05-06T19:47:20.696Z,101588.16
2023-05-06T19:50:22.798Z,101584.50
2023-05-06T19:53:25.673Z,101586.13
2023-05-06T19:56:27.772Z,101574.06
2023-05-06T19:59:30.334Z,101592.09
2023-05-06T20:02:35.380Z,101586.84
2023-05-06T20:05:37.465Z,101585.53
2023-05-06T20:08:43.973Z,101587.50
2023-05-06T20:11:47.639Z,101586.84
2023-05-06T20:14:49.941Z,101583.94
2023-05-06T20:17:52.180Z,101591.19
2023-05-06T20:20:54.396Z,101588.53
2023-05-06T20:23:56.923Z,101592.78
2023-05-06T20:26:59.179Z,101575.78
2023-05-06T20:30:05.165Z,101589.50
2023-05-06T20:33:08.009Z,101593.91
2023-05-06T20:36:10.221Z,101587.34
2023-05-06T20:39:13.222Z,101583.69
2023-05-06T20:42:15.341Z,101587.25
2023-05-06T20:45:17.701Z,101596.25
2023-05-06T20:48:19.901Z,101587.47
2023-05-06T20:51:22.166Z,101595.16
2023-05-06T20:54:24.734Z,101587.00
2023-05-06T20:57:26.975Z,101590.34
2023-05-06T21:00:32.467Z,101575.25
2023-05-06T21:03:41.587Z,101586.41
2023-05-06T21:06:49.949Z,101582.66
2023-05-06T21:09:52.272Z,101581.44
2023-05-06T21:12:56.201Z,101577.69
2023-05-06T21:15:58.428Z,101574.13
2023-05-06T21:19:06.076Z,101563.72
2023-05-06T21:22:11.048Z,101564.34
2023-05-06T21:25:13.396Z,101567.75
2023-05-06T21:28:15.793Z,101558.53
2023-05-06T21:31:22.380Z,101562.50
2023-05-06T21:34:25.674Z,101584.16
2023-05-06T21:37:27.668Z,101585.66
2023-05-06T21:40:32.304Z,101581.25
2023-05-06T21:43:35.564Z,101579.66
2023-05-06T21:46:38.076Z,101595.16
2023-05-06T21:49:40.301Z,101593.75
2023-05-06T21:52:42.543Z,101591.28
2023-05-06T21:55:44.909Z,101590.94
2023-05-06T21:58:47.655Z,101600.41
2023-05-06T22:01:49.894Z,101603.13
2023-05-06T22:04:52.333Z,101604.44
2023-05-06T22:07:54.471Z,101610.25
2023-05-06T22:10:59.553Z,101609.66
2023-05-06T22:14:01.918Z,101602.63
2023-05-06T22:17:04.868Z,101606.34
2023-05-06T22:20:11.163Z,101608.88
2023-05-06T22:23:15.339Z,101606.34
2023-05-06T22:26:17.484Z,101603.59
2023-05-06T22:29:19.570Z,101602.22
2023-05-06T22:32:22.954Z,101603.16
2023-05-06T22:35:25.468Z,101605.22
2023-05-06T22:38:27.507Z,101604.56
2023-05-06T22:41:31.889Z,101610.44
2023-05-06T22:44:34.968Z,101598.22
2023-05-06T22:47:37.357Z,101601.75
2023-05-06T22:50:39.513Z,101598.59
2023-05-06T22:53:41.761Z,101596.38
2023-05-06T22:56:43.980Z,101598.81
2023-05-06T22:59:47.391Z,101594.59
2023-05-06T23:02:49.508Z,101590.03
2023-05-06T23:05:51.750Z,101598.88
2023-05-06T23:08:54.972Z,101593.13
2023-05-06T23:11:57.133Z,101601.91
2023-05-06T23:15:00.145Z,101591.75
2023-05-06T23:18:02.398Z,101592.13
2023-05-06T23:21:04.624Z,101592.31
2023-05-06T23:24:06.826Z,101600.44
2023-05-06T23:27:08.835Z,101594.13
2023-05-06T23:30:11.574Z,101598.19
2023-05-06T23:33:14.687Z,101600.81
2023-05-06T23:36:17.756Z,101598.69
2023-05-06T23:39:19.946Z,101603.28
2023-05-06T23:42:22.787Z,101594.44
2023-05-06T23:45:26.840Z,101592.03
2023-05-06T23:48:28.866Z,101588.38
2023-05-06T23:51:31.779Z,101587.44
2023-05-06T23:54:33.710Z,101581.06
2023-05-06T23:57:35.844Z,101586.88
